Time;durP1;ratioP1;P1;durP2;ratioP2;P2;SDS_P1;SDS_P2;PMS_P1;PMS_P2;Temp;Humidity;BMP_temperature;BMP_pressure;BME280_temperature;BME280_humidity;BME280_pressure;Samples;Min_cycle;Max_cycle;Signal;HPM_P1;HPM_P2
2021/08/18 00:00:25;;;;;;;8.98;4.33;;;;;;;22.11;58.10;100171.98;1738056;80;21455;-59
2021/08/18 00:02:51;;;;;;;6.30;3.80;;;;;;;22.11;58.09;100173.32;1760005;79;21055;-59
2021/08/18 00:05:18;;;;;;;7.67;3.80;;;;;;;22.13;58.14;100171.29;1756520;79;23284;-59
2021/08/18 00:07:46;;;;;;;7.95;3.72;;;;;;;22.15;58.14;100181.28;1753149;79;21043;-60
2021/08/18 00:10:13;;;;;;;8.93;3.87;;;;;;;22.18;58.21;100180.88;1756857;80;21038;-59
2021/08/18 00:12:40;;;;;;;14.20;3.67;;;;;;;22.15;58.37;100181.28;1757046;79;21047;-60
2021/08/18 00:15:10;;;;;;;5.50;3.80;;;;;;;22.13;58.61;100182.00;1758379;79;21016;-59
2021/08/18 00:17:36;;;;;;;7.75;3.72;;;;;;;22.08;58.67;100184.77;1758920;80;22275;-59
2021/08/18 00:20:05;;;;;;;7.53;3.67;;;;;;;22.04;58.59;100190.23;1754259;80;21048;-60
2021/08/18 00:22:32;;;;;;;6.17;3.45;;;;;;;21.97;58.73;100196.59;1762911;79;21313;-59
2021/08/18 00:24:59;;;;;;;6.45;3.90;;;;;;;21.88;58.94;100197.30;1741211;80;21188;-59
2021/08/18 00:27:25;;;;;;;6.22;3.62;;;;;;;21.79;59.11;100194.50;1752031;80;21722;-60
2021/08/18 00:29:52;;;;;;;7.20;4.00;;;;;;;21.71;59.37;100190.13;1749022;80;21118;-60
2021/08/18 00:32:19;;;;;;;5.08;3.17;;;;;;;21.64;59.69;100192.78;1760683;79;21463;-60
2021/08/18 00:34:45;;;;;;;5.62;3.37;;;;;;;21.62;59.88;100202.87;1759001;80;21161;-60
2021/08/18 00:37:12;;;;;;;6.55;3.87;;;;;;;21.61;59.81;100197.20;1760038;79;21035;-60
2021/08/18 00:39:39;;;;;;;7.75;3.67;;;;;;;21.63;59.79;100191.12;1760332;80;21053;-59
2021/08/18 00:42:06;;;;;;;6.53;3.80;;;;;;;21.64;59.86;100198.14;1763241;80;21062;-60
2021/08/18 00:44:34;;;;;;;6.62;3.35;;;;;;;21.66;59.98;100197.42;1761688;79;21592;-59
2021/08/18 00:47:01;;;;;;;6.53;3.55;;;;;;;21.67;59.96;100200.42;1740659;80;21067;-60
2021/08/18 00:49:27;;;;;;;6.33;3.70;;;;;;;21.65;60.26;100200.30;1764854;79;21142;-61
2021/08/18 00:51:54;;;;;;;7.58;4.17;;;;;;;21.60;60.48;100200.07;1762121;79;21053;-60
2021/08/18 00:54:24;;;;;;;8.33;4.17;;;;;;;21.59;60.71;100205.12;1754633;79;21720;-60
2021/08/18 00:56:54;;;;;;;9.85;3.98;;;;;;;21.55;60.89;100203.34;1757059;79;21446;-60
2021/08/18 00:59:21;;;;;;;6.17;3.45;;;;;;;21.57;60.86;100207.16;1753844;80;21007;-60
2021/08/18 01:01:48;;;;;;;6.08;3.30;;;;;;;21.64;60.70;100211.53;1762851;79;21039;-60
2021/08/18 01:04:15;;;;;;;7.58;3.65;;;;;;;21.66;60.54;100213.48;1731089;80;21121;-60
2021/08/18 01:06:43;;;;;;;6.47;3.85;;;;;;;21.59;60.57;100219.33;1756722;79;21068;-60
2021/08/18 01:09:13;;;;;;;12.03;4.00;;;;;;;21.52;61.04;100218.48;1756701;79;21518;-60
2021/08/18 01:11:46;;;;;;;6.45;3.80;;;;;;;21.44;61.16;100219.95;1759914;79;21049;-60
2021/08/18 01:14:15;;;;;;;7.62;4.08;;;;;;;21.36;61.49;100220.11;1752771;79;21043;-60
2021/08/18 01:16:46;;;;;;;8.23;4.30;;;;;;;21.29;61.65;100219.55;1752402;79;21148;-61
2021/08/18 01:19:17;;;;;;;7.03;3.65;;;;;;;21.25;61.93;100217.46;1758958;79;21665;-59
2021/08/18 01:21:46;;;;;;;7.40;3.55;;;;;;;21.23;62.06;100217.69;1756073;79;21060;-60
2021/08/18 01:24:13;;;;;;;7.30;3.77;;;;;;;21.30;62.25;100219.87;1747157;80;21059;-59
2021/08/18 01:26:40;;;;;;;8.75;4.25;;;;;;;21.35;62.17;100215.28;1761612;79;21134;-60
2021/08/18 01:29:06;;;;;;;13.40;4.35;;;;;;;21.37;62.16;100225.27;1748497;80;21502;-60
2021/08/18 01:31:34;;;;;;;7.60;4.40;;;;;;;21.37;62.13;100235.12;1751499;79;22021;-59
2021/08/18 01:34:02;;;;;;;10.30;3.95;;;;;;;21.34;62.25;100227.81;1755622;79;21070;-59
2021/08/18 01:36:31;;;;;;;7.03;4.42;;;;;;;21.35;62.32;100232.67;1757991;79;21468;-60
2021/08/18 01:39:06;;;;;;;6.67;3.62;;;;;;;21.34;62.51;100235.84;1758583;79;21665;-59
2021/08/18 01:41:32;;;;;;;8.37;4.30;;;;;;;21.29;62.61;100226.24;1753118;79;21054;-60
2021/08/18 01:43:59;;;;;;;8.15;4.25;;;;;;;21.30;62.68;100213.68;1759818;79;21077;-60
2021/08/18 01:46:25;;;;;;;6.53;4.28;;;;;;;21.42;62.78;100219.33;1700071;82;21071;-59
2021/08/18 01:48:53;;;;;;;6.20;3.70;;;;;;;21.54;62.68;100214.27;1757594;79;21055;-59
2021/08/18 01:51:21;;;;;;;6.92;4.12;;;;;;;21.60;62.43;100213.45;1730296;80;21445;-59
2021/08/18 01:53:48;;;;;;;7.37;4.42;;;;;;;21.65;62.28;100217.20;1758671;79;21046;-59
2021/08/18 01:56:18;;;;;;;8.03;4.33;;;;;;;21.68;62.11;100210.09;1684423;82;21703;-59
2021/08/18 01:58:48;;;;;;;7.58;4.85;;;;;;;21.70;62.03;100209.40;1753575;80;21122;-59
2021/08/18 02:01:15;;;;;;;8.20;4.75;;;;;;;21.68;62.05;100201.23;1753633;79;21090;-59
2021/08/18 02:03:43;;;;;;;7.33;4.00;;;;;;;21.67;62.16;100200.91;1752625;79;21083;-59
2021/08/18 02:06:10;;;;;;;11.95;5.15;;;;;;;21.70;62.03;100197.34;1730531;79;21521;-59
2021/08/18 02:08:38;;;;;;;6.72;3.98;;;;;;;21.71;62.04;100194.15;1760643;80;21185;-60
2021/08/18 02:11:06;;;;;;;7.33;4.42;;;;;;;21.71;62.08;100193.63;1755076;79;21047;-59
2021/08/18 02:13:33;;;;;;;9.65;4.83;;;;;;;21.73;62.04;100201.98;1758438;79;21041;-59
2021/08/18 02:16:00;;;;;;;7.65;4.05;;;;;;;21.75;62.06;100202.60;1753488;80;21056;-59
2021/08/18 02:18:26;;;;;;;6.60;3.98;;;;;;;21.76;62.15;100210.96;1760255;79;21148;-60
2021/08/18 02:20:53;;;;;;;7.25;4.72;;;;;;;21.76;62.15;100204.27;1673724;82;21448;-59
2021/08/18 02:23:20;;;;;;;7.42;4.28;;;;;;;21.80;62.20;100210.86;1765387;79;21085;-59
2021/08/18 02:25:48;;;;;;;6.72;4.37;;;;;;;21.87;62.17;100209.02;1759580;79;21060;-59
2021/08/18 02:28:14;;;;;;;9.73;4.45;;;;;;;21.92;62.04;100206.56;1764266;79;21699;-59
2021/08/18 02:30:40;;;;;;;8.38;4.45;;;;;;;21.96;62.00;100198.97;1767781;79;21035;-59
2021/08/18 02:33:08;;;;;;;7.58;4.62;;;;;;;21.98;62.00;100202.27;1758045;79;21794;-59
2021/08/18 02:35:37;;;;;;;9.68;3.98;;;;;;;22.01;62.06;100203.21;1757437;79;21368;-59
2021/08/18 02:38:04;;;;;;;8.30;4.30;;;;;;;22.01;62.12;100193.31;1760455;80;21506;-59
2021/08/18 02:40:32;;;;;;;6.97;3.92;;;;;;;22.03;62.34;100188.56;1766388;79;21525;-59
2021/08/18 02:43:00;;;;;;;7.35;4.50;;;;;;;22.03;62.60;100185.89;1762025;79;21085;-60
2021/08/18 02:45:28;;;;;;;6.28;3.62;;;;;;;22.03;63.29;100185.89;1749064;79;21785;-59
2021/08/18 02:47:54;;;;;;;6.28;3.42;;;;;;;22.04;64.42;100177.33;1740757;80;21078;-59
2021/08/18 02:50:23;;;;;;;6.17;3.72;;;;;;;22.02;64.76;100179.39;1740696;80;21149;-59
2021/08/18 02:52:49;;;;;;;8.25;4.08;;;;;;;21.95;65.21;100175.36;1735573;80;21479;-59
2021/08/18 02:55:16;;;;;;;6.45;3.85;;;;;;;21.90;65.63;100183.17;1739468;79;21111;-60
2021/08/18 02:57:42;;;;;;;8.80;3.95;;;;;;;21.86;65.79;100191.31;1763400;79;22862;-59
2021/08/18 03:00:10;;;;;;;6.78;4.17;;;;;;;21.85;66.07;100197.17;1763355;79;21121;-59
2021/08/18 03:02:36;;;;;;;10.00;4.03;;;;;;;21.92;66.03;100201.20;1761274;79;21059;-59
2021/08/18 03:05:04;;;;;;;6.55;4.05;;;;;;;21.97;65.87;100204.62;1756107;79;21047;-60
2021/08/18 03:07:31;;;;;;;6.65;3.70;;;;;;;22.00;66.11;100206.91;1760607;79;21392;-58
2021/08/18 03:09:59;;;;;;;8.80;3.35;;;;;;;22.00;66.07;100197.00;1763877;79;21137;-57
2021/08/18 03:12:26;;;;;;;6.10;3.52;;;;;;;22.06;66.03;100196.20;1759821;79;21723;-58
2021/08/18 03:14:52;;;;;;;8.58;4.15;;;;;;;22.13;65.90;100199.42;1759643;79;21051;-57
2021/08/18 03:17:19;;;;;;;6.37;3.92;;;;;;;22.17;65.72;100203.33;1721894;80;21110;-57
2021/08/18 03:19:46;;;;;;;6.53;3.80;;;;;;;22.17;65.74;100201.47;1730876;80;21121;-57
2021/08/18 03:22:13;;;;;;;6.75;4.47;;;;;;;22.19;65.62;100208.81;1722608;82;22027;-59
2021/08/18 03:24:40;;;;;;;7.10;4.45;;;;;;;22.18;65.43;100207.15;1719722;82;21090;-59
2021/08/18 03:27:06;;;;;;;8.78;4.03;;;;;;;22.21;65.29;100206.75;1669061;84;21122;-58
2021/08/18 03:29:33;;;;;;;8.90;4.50;;;;;;;22.25;65.24;100205.82;1680270;84;21153;-58
2021/08/18 03:31:59;;;;;;;7.20;3.60;;;;;;;22.26;65.30;100208.83;1729433;81;21118;-57
2021/08/18 03:34:25;;;;;;;7.70;4.08;;;;;;;22.25;65.31;100206.64;1727730;81;21082;-58
2021/08/18 03:36:52;;;;;;;7.62;4.47;;;;;;;22.27;65.28;100209.12;1679270;83;21302;-58
2021/08/18 03:39:19;;;;;;;8.53;5.47;;;;;;;22.31;65.10;100210.41;1681169;83;21173;-58
2021/08/18 03:41:48;;;;;;;7.75;4.40;;;;;;;22.37;65.08;100218.14;1726885;80;21134;-58
2021/08/18 03:44:14;;;;;;;7.37;4.30;;;;;;;22.37;65.11;100218.14;1701459;82;21079;-58
2021/08/18 03:46:40;;;;;;;8.73;4.42;;;;;;;22.33;65.02;100221.74;1702212;82;21582;-58
2021/08/18 03:49:08;;;;;;;7.95;4.25;;;;;;;22.29;65.03;100221.83;1726035;82;21161;-58
2021/08/18 03:51:35;;;;;;;8.15;3.98;;;;;;;22.32;65.10;100222.77;1704537;81;21612;-58
2021/08/18 03:54:01;;;;;;;8.10;3.77;;;;;;;22.40;64.97;100225.25;1731064;81;21090;-58
2021/08/18 03:56:28;;;;;;;9.28;5.33;;;;;;;22.49;64.86;100235.78;1726405;81;21031;-58
2021/08/18 03:58:56;;;;;;;7.12;4.55;;;;;;;22.53;64.58;100243.74;1728697;82;21151;-58
2021/08/18 04:01:23;;;;;;;8.95;5.12;;;;;;;22.51;64.54;100241.75;1726260;81;21058;-59
2021/08/18 04:03:49;;;;;;;8.55;4.90;;;;;;;22.47;64.53;100244.02;1700573;81;21063;-59
2021/08/18 04:06:18;;;;;;;6.85;4.05;;;;;;;22.47;64.49;100248.57;1704843;82;21605;-59
2021/08/18 04:08:44;;;;;;;6.62;4.35;;;;;;;22.46;64.42;100251.78;1729322;81;22501;-58
2021/08/18 04:11:14;;;;;;;7.35;4.20;;;;;;;22.44;64.43;100258.68;1724200;81;21106;-58
2021/08/18 04:13:40;;;;;;;6.85;4.22;;;;;;;22.43;64.02;100266.40;1722675;81;22266;-58
2021/08/18 04:16:06;;;;;;;7.47;5.00;;;;;;;22.37;63.83;100259.16;1724754;81;21070;-58
2021/08/18 04:18:34;;;;;;;7.25;4.47;;;;;;;22.34;63.82;100248.88;1718294;82;21120;-59
2021/08/18 04:21:01;;;;;;;7.35;4.70;;;;;;;22.32;63.79;100246.88;1721640;82;21070;-59
2021/08/18 04:23:27;;;;;;;6.62;4.35;;;;;;;22.31;63.86;100243.06;1746283;80;22279;-58
2021/08/18 04:25:54;;;;;;;10.05;3.90;;;;;;;22.34;63.97;100243.51;1722942;82;21060;-58
2021/08/18 04:28:21;;;;;;;9.20;4.05;;;;;;;22.39;63.84;100237.02;1746348;80;21096;-59
2021/08/18 04:30:47;;;;;;;8.15;4.42;;;;;;;22.51;63.51;100234.56;1746303;80;21749;-58
2021/08/18 04:33:13;;;;;;;8.20;4.70;;;;;;;22.59;63.33;100234.86;1744627;80;21049;-58
2021/08/18 04:35:40;;;;;;;8.43;4.08;;;;;;;22.62;63.10;100231.25;1744911;80;21087;-58
2021/08/18 04:38:07;;;;;;;6.65;3.95;;;;;;;22.66;62.91;100228.97;1716969;82;21542;-58
2021/08/18 04:40:33;;;;;;;7.75;4.53;;;;;;;22.62;63.23;100221.04;1746323;80;21170;-58
2021/08/18 04:42:59;;;;;;;6.30;3.90;;;;;;;22.62;63.37;100219.17;1742833;80;21122;-58
2021/08/18 04:45:26;;;;;;;10.80;4.42;;;;;;;22.63;63.21;100216.00;1711441;82;21071;-59
2021/08/18 04:47:52;;;;;;;5.97;3.50;;;;;;;22.59;63.38;100212.91;1744691;80;21837;-59
2021/08/18 04:50:20;;;;;;;8.30;3.37;;;;;;;22.53;63.29;100203.52;1740700;80;21130;-58
2021/08/18 04:52:47;;;;;;;6.55;3.72;;;;;;;22.48;63.56;100210.83;1740993;80;22476;-60
2021/08/18 04:55:14;;;;;;;8.90;4.08;;;;;;;22.48;63.68;100211.33;1750083;80;21118;-58
2021/08/18 04:57:41;;;;;;;7.87;4.30;;;;;;;22.53;63.49;100217.74;1743423;80;21131;-57
2021/08/18 05:00:09;;;;;;;7.75;4.12;;;;;;;22.57;63.60;100224.86;1735741;80;21494;-56
2021/08/18 05:02:37;;;;;;;7.20;4.78;;;;;;;22.56;63.69;100218.68;1736241;80;21064;-58
2021/08/18 05:05:05;;;;;;;9.33;5.10;;;;;;;22.51;63.77;100217.13;1742012;80;21097;-58
2021/08/18 05:07:33;;;;;;;6.80;4.40;;;;;;;22.43;63.98;100215.98;1714198;80;21099;-54
2021/08/18 05:09:59;;;;;;;9.55;4.42;;;;;;;22.35;64.19;100217.00;1736733;80;21886;-58
2021/08/18 05:12:26;;;;;;;8.40;5.50;;;;;;;22.35;64.47;100224.22;1739474;80;21104;-58
2021/08/18 05:14:53;;;;;;;7.28;5.17;;;;;;;22.35;64.66;100224.22;1725062;81;21001;-59
2021/08/18 05:17:19;;;;;;;7.33;4.70;;;;;;;22.34;64.75;100229.27;1738142;80;21133;-59
2021/08/18 05:19:47;;;;;;;8.28;4.37;;;;;;;22.28;64.91;100233.59;1755570;81;21366;-58
2021/08/18 05:22:13;;;;;;;7.12;4.92;;;;;;;22.30;65.06;100242.25;1752644;80;21153;-58
2021/08/18 05:24:40;;;;;;;7.35;4.90;;;;;;;22.37;64.93;100246.28;1752011;80;21073;-58
2021/08/18 05:27:08;;;;;;;6.97;4.65;;;;;;;22.39;64.70;100241.05;1752630;80;21032;-57
2021/08/18 05:29:34;;;;;;;7.47;4.12;;;;;;;22.39;64.47;100242.88;1755590;81;21075;-58
2021/08/18 05:54:26;;;;;;;8.98;6.12;;;;;;;23.06;62.50;100249.11;1782351;76;22064;-58
2021/08/18 05:56:54;;;;;;;8.73;6.30;;;;;;;22.91;62.72;100256.52;1772088;78;21137;-57
2021/08/18 05:59:21;;;;;;;8.90;7.30;;;;;;;22.93;62.71;100265.19;1776085;78;21239;-60
2021/08/18 06:01:48;;;;;;;11.08;7.22;;;;;;;22.96;62.47;100257.57;1773286;78;21112;-65
2021/08/18 06:04:14;;;;;;;10.32;8.00;;;;;;;22.96;62.24;100258.06;1776871;78;21074;-62
2021/08/18 06:06:42;;;;;;;9.48;7.45;;;;;;;22.89;62.36;100263.44;1768292;78;21061;-59
2021/08/18 06:09:08;;;;;;;13.28;7.92;;;;;;;22.79;62.68;100262.50;1777297;78;21058;-58
2021/08/18 06:11:40;;;;;;;10.88;6.85;;;;;;;22.72;63.10;100259.53;1774722;78;22056;-57
2021/08/18 06:14:07;;;;;;;10.93;7.72;;;;;;;22.71;63.51;100261.39;1774643;78;20959;-60
2021/08/18 06:16:34;;;;;;;10.43;8.55;;;;;;;22.67;63.53;100268.18;1778200;78;21487;-59
2021/08/18 06:19:01;;;;;;;10.80;8.68;;;;;;;22.60;63.64;100268.17;1765689;78;21112;-60
2021/08/18 06:21:27;;;;;;;10.15;7.80;;;;;;;22.55;63.75;100269.83;1750876;78;21122;-60
2021/08/18 06:24:00;;;;;;;11.38;8.38;;;;;;;22.49;63.97;100272.79;1705692;81;21231;-58
2021/08/18 06:26:24;;;;;;;10.95;8.15;;;;;;;22.48;64.35;100279.69;1733353;80;21144;-60
2021/08/18 06:28:51;;;;;;;9.08;7.65;;;;;;;22.47;64.46;100278.06;1704569;82;22489;-65
2021/08/18 06:31:18;;;;;;;10.50;7.80;;;;;;;22.41;64.34;100277.84;1716028;81;21088;-60
2021/08/18 06:33:47;;;;;;;11.45;7.58;;;;;;;22.33;64.63;100286.08;1738447;80;22401;-59
2021/08/18 06:36:13;;;;;;;11.88;8.50;;;;;;;22.23;64.95;100278.38;1725009;80;21798;-58
2021/08/18 06:38:40;;;;;;;12.43;8.78;;;;;;;22.20;65.03;100274.77;1700202;82;21040;-59
2021/08/18 06:41:07;;;;;;;14.07;9.33;;;;;;;22.19;65.34;100287.87;1719077;81;21515;-59
2021/08/18 06:43:36;;;;;;;11.85;7.83;;;;;;;22.18;65.36;100289.41;1716030;81;21097;-57
2021/08/18 06:46:04;;;;;;;10.95;8.93;;;;;;;22.15;64.93;100293.83;1736859;80;21142;-60
2021/08/18 06:48:31;;;;;;;11.68;8.80;;;;;;;22.11;64.70;100291.22;1744780;79;21449;-69
2021/08/18 06:50:58;;;;;;;12.10;8.83;;;;;;;22.10;64.64;100288.24;1701053;82;21139;-68
2021/08/18 06:53:27;;;;;;;14.75;10.20;;;;;;;22.06;64.72;100294.00;1706618;81;21130;-67
2021/08/18 06:55:53;;;;;;;13.83;9.70;;;;;;;21.98;64.69;100289.33;1721428;80;21117;-68
2021/08/18 06:58:21;;;;;;;16.17;9.65;;;;;;;21.89;64.97;100288.69;1710697;80;21085;-68
2021/08/18 07:00:49;;;;;;;13.00;10.10;;;;;;;21.83;65.11;100282.78;1738266;80;21114;-64
2021/08/18 07:03:16;;;;;;;12.33;9.63;;;;;;;21.80;65.21;100284.51;1732917;80;21572;-71
2021/08/18 07:05:43;;;;;;;13.05;9.68;;;;;;;21.77;65.22;100283.07;1722944;80;21073;-66
2021/08/18 07:08:09;;;;;;;12.23;8.70;;;;;;;21.75;65.59;100277.06;1712660;81;21088;-65
2021/08/18 07:10:37;;;;;;;12.55;8.83;;;;;;;21.77;65.49;100279.55;1743736;80;21059;-66
2021/08/18 07:13:03;;;;;;;11.68;9.78;;;;;;;21.81;65.58;100264.22;1735002;80;22263;-63
2021/08/18 07:15:30;;;;;;;15.50;10.15;;;;;;;21.94;65.57;100263.46;1740221;80;21152;-65
2021/08/18 07:17:57;;;;;;;12.70;9.30;;;;;;;22.03;65.01;100256.89;1745863;80;21384;-64
2021/08/18 07:20:23;;;;;;;12.78;9.88;;;;;;;22.08;65.31;100254.42;1711758;80;21637;-63
2021/08/18 07:22:49;;;;;;;15.25;10.03;;;;;;;22.16;65.05;100253.95;1741788;80;21080;-65
2021/08/18 07:25:15;;;;;;;13.50;9.15;;;;;;;22.18;64.46;100241.98;1729548;80;21136;-61
2021/08/18 07:27:42;;;;;;;12.13;9.45;;;;;;;22.22;64.78;100235.70;1715561;81;21161;-60
2021/08/18 07:30:10;;;;;;;13.38;10.05;;;;;;;22.28;64.50;100231.41;1737673;79;21089;-66
2021/08/18 07:32:37;;;;;;;13.13;10.50;;;;;;;22.31;64.46;100229.66;1726917;80;21067;-67
2021/08/18 07:35:05;;;;;;;13.53;11.28;;;;;;;22.32;64.30;100246.88;1740899;81;21548;-65
2021/08/18 07:37:34;;;;;;;15.72;11.78;;;;;;;22.26;64.57;100246.34;1730092;80;22380;-68
2021/08/18 07:40:00;;;;;;;12.53;10.45;;;;;;;22.21;64.70;100240.77;1704536;82;21079;-65
2021/08/18 07:42:27;;;;;;;11.65;8.73;;;;;;;22.18;64.94;100239.83;1734694;80;21550;-67
2021/08/18 07:44:53;;;;;;;15.53;9.43;;;;;;;22.16;64.95;100229.31;1719380;81;21211;-66
2021/08/18 07:47:20;;;;;;;14.55;10.53;;;;;;;22.08;64.87;100235.67;1736812;80;21140;-66
2021/08/18 07:49:47;;;;;;;11.03;9.15;;;;;;;21.95;65.12;100232.13;1733402;80;21099;-62
2021/08/18 07:52:14;;;;;;;13.70;8.70;;;;;;;21.86;65.59;100240.87;1730932;80;21054;-63
2021/08/18 07:54:40;;;;;;;11.30;9.70;;;;;;;21.83;65.80;100242.60;1730319;81;21070;-66
2021/08/18 07:57:07;;;;;;;13.85;8.73;;;;;;;21.83;65.80;100240.73;1741401;80;21125;-62
2021/08/18 07:59:34;;;;;;;12.03;9.35;;;;;;;21.85;65.87;100244.56;1717966;81;21113;-63
2021/08/18 08:02:00;;;;;;;12.53;10.23;;;;;;;21.89;66.07;100237.27;1720299;81;21149;-65
2021/08/18 08:04:27;;;;;;;11.90;8.95;;;;;;;21.88;65.72;100236.13;1696476;80;21449;-62
2021/08/18 08:06:55;;;;;;;12.43;8.83;;;;;;;21.86;65.46;100247.56;1728792;80;21137;-62
2021/08/18 08:09:22;;;;;;;13.43;8.20;;;;;;;21.83;65.58;100250.64;1728663;80;21102;-59
2021/08/18 08:11:49;;;;;;;11.68;7.87;;;;;;;21.84;65.78;100250.44;1724320;80;21442;-60
2021/08/18 08:14:15;;;;;;;13.53;8.03;;;;;;;21.94;65.83;100247.39;1733372;79;21121;-58
2021/08/18 08:16:42;;;;;;;12.20;8.15;;;;;;;22.04;65.59;100236.27;1717292;81;21101;-59
2021/08/18 08:19:08;;;;;;;12.60;7.78;;;;;;;22.11;65.24;100234.45;1735381;79;21196;-58
2021/08/18 08:21:35;;;;;;;9.38;7.33;;;;;;;22.11;65.38;100248.34;1719727;81;21204;-59
2021/08/18 08:24:01;;;;;;;11.73;6.47;;;;;;;22.03;65.16;100266.27;1713303;81;21547;-59
2021/08/18 08:26:27;;;;;;;9.45;6.33;;;;;;;21.98;64.93;100277.28;1740586;79;21175;-59
2021/08/18 08:28:54;;;;;;;10.90;6.87;;;;;;;21.97;64.84;100285.84;1710174;81;21072;-57
2021/08/18 08:31:21;;;;;;;9.20;7.15;;;;;;;21.96;65.15;100295.41;1731581;80;21203;-58
2021/08/18 08:33:47;;;;;;;8.95;6.90;;;;;;;21.91;65.34;100297.34;1729409;80;21121;-59
2021/08/18 08:36:13;;;;;;;9.25;6.60;;;;;;;21.84;65.73;100291.14;1731918;80;21035;-61
2021/08/18 08:38:40;;;;;;;9.05;6.67;;;;;;;21.77;66.42;100283.56;1736207;80;21900;-62
2021/08/18 08:41:07;;;;;;;8.55;6.42;;;;;;;21.73;66.94;100276.44;1733522;80;21079;-62
2021/08/18 08:43:33;;;;;;;10.18;7.05;;;;;;;21.71;67.56;100275.82;1711078;81;21125;-62
2021/08/18 08:46:00;;;;;;;9.53;7.10;;;;;;;21.68;68.02;100269.00;1672122;82;21101;-63
2021/08/18 08:48:26;;;;;;;8.10;6.03;;;;;;;21.61;68.46;100264.13;1713745;81;21110;-62
2021/08/18 08:50:53;;;;;;;7.35;5.47;;;;;;;21.56;68.34;100269.25;1699282;81;21834;-58
2021/08/18 08:53:19;;;;;;;7.70;5.10;;;;;;;21.55;68.54;100273.47;1705631;81;21192;-60
2021/08/18 08:55:46;;;;;;;13.00;7.00;;;;;;;21.53;68.45;100280.34;1710281;81;22570;-62
2021/08/18 08:58:13;;;;;;;9.13;6.10;;;;;;;21.46;68.87;100274.11;1700654;81;21136;-59
2021/08/18 09:00:41;;;;;;;8.08;6.05;;;;;;;21.41;69.10;100277.89;1688889;82;21159;-61
2021/08/18 09:03:23;;;;;;;9.50;6.55;;;;;;;21.39;69.43;100279.42;1730770;81;21042;-61
2021/08/18 09:05:47;;;;;;;11.45;6.35;;;;;;;21.40;69.62;100276.23;1728207;80;21148;-61
2021/08/18 09:08:20;;;;;;;9.63;6.87;;;;;;;21.43;69.55;100277.99;1726927;81;21061;-61
2021/08/18 09:11:09;;;;;;;9.90;6.62;;;;;;;21.44;69.16;100276.98;1742239;80;21078;-61
2021/08/18 09:13:51;;;;;;;7.83;6.15;;;;;;;21.41;69.32;100281.38;1745061;80;21158;-62
2021/08/18 09:16:20;;;;;;;8.43;6.22;;;;;;;21.38;69.01;100292.48;1719552;81;21158;-63
2021/08/18 09:18:53;;;;;;;7.87;5.65;;;;;;;21.40;69.11;100297.64;1731388;80;21101;-60
2021/08/18 09:21:35;;;;;;;10.80;6.53;;;;;;;21.44;69.30;100301.59;1713245;80;21125;-60
2021/08/18 09:24:20;;;;;;;9.30;6.03;;;;;;;21.51;69.17;100307.31;1733624;80;21101;-60
2021/08/18 09:26:53;;;;;;;8.38;6.08;;;;;;;21.56;68.65;100305.92;1713472;81;21478;-60
2021/08/18 09:29:45;;;;;;;10.25;6.97;;;;;;;21.55;68.16;100314.96;1714201;81;21060;-60
2021/08/18 09:32:32;;;;;;;10.55;6.58;;;;;;;21.52;68.30;100317.53;1721522;81;21027;-60
2021/08/18 09:35:10;;;;;;;10.15;6.50;;;;;;;21.46;68.53;100315.59;1717634;80;21097;-61
2021/08/18 09:37:45;;;;;;;8.03;6.33;;;;;;;21.47;68.57;100314.63;1777870;78;21549;-60
2021/08/18 09:40:19;;;;;;;9.40;6.53;;;;;;;21.47;69.03;100318.11;1714287;81;21011;-61
2021/08/18 09:42:46;;;;;;;10.15;7.20;;;;;;;21.51;69.15;100314.01;1750151;80;21323;-61
2021/08/18 09:45:25;;;;;;;9.33;7.25;;;;;;;21.52;68.98;100311.66;1719203;81;21070;-61
2021/08/18 09:47:58;;;;;;;9.75;7.00;;;;;;;21.54;68.76;100311.98;1730170;80;21133;-61
2021/08/18 09:50:28;;;;;;;9.55;7.17;;;;;;;21.52;68.31;100310.84;1740339;80;21612;-60
2021/08/18 09:53:07;;;;;;;13.15;8.10;;;;;;;21.52;68.36;100306.30;1753964;80;21029;-59
2021/08/18 09:55:33;;;;;;;9.85;7.70;;;;;;;21.55;68.43;100297.03;1742818;80;21229;-60
2021/08/18 09:58:02;;;;;;;10.05;7.90;;;;;;;21.55;68.56;100300.23;1733216;80;21710;-58
2021/08/18 10:00:29;;;;;;;10.43;7.90;;;;;;;21.50;68.41;100292.78;1744971;80;21172;-61
2021/08/18 10:02:55;;;;;;;11.22;7.30;;;;;;;21.55;68.50;100291.68;1703161;80;21109;-60
2021/08/18 10:05:28;;;;;;;8.93;7.35;;;;;;;21.63;68.13;100290.70;1732156;81;21062;-60
2021/08/18 10:07:50;;;;;;;9.65;8.33;;;;;;;21.67;68.25;100285.26;1704004;80;21418;-61
2021/08/18 10:10:17;;;;;;;8.53;7.12;;;;;;;21.71;68.83;100287.34;1733935;81;21104;-61
2021/08/18 10:12:43;;;;;;;11.35;7.05;;;;;;;21.80;67.70;100289.34;1696248;81;21643;-61
2021/08/18 10:15:11;;;;;;;10.65;7.75;;;;;;;21.86;68.03;100286.40;1699523;81;21046;-61
2021/08/18 10:17:40;;;;;;;10.32;7.37;;;;;;;21.89;68.00;100283.33;1686079;81;21576;-59
2021/08/18 10:20:08;;;;;;;10.55;7.50;;;;;;;21.91;68.23;100287.97;1736760;80;21128;-59
2021/08/18 10:22:36;;;;;;;9.60;7.67;;;;;;;21.94;67.50;100291.59;1743046;80;21115;-58
2021/08/18 10:25:40;;;;;;;9.68;8.03;;;;;;;21.98;66.96;100290.67;1722311;80;21521;-59
2021/08/18 10:28:08;;;;;;;13.50;9.50;;;;;;;21.99;67.38;100299.85;1749091;80;21059;-60
2021/08/18 10:30:53;;;;;;;12.58;9.35;;;;;;;21.95;67.31;100289.20;1748819;79;21548;-60
2021/08/18 10:33:57;;;;;;;11.90;9.90;;;;;;;21.87;67.13;100299.59;1719943;81;21091;-60
2021/08/18 10:39:41;;;;;;;11.38;8.63;;;;;;;21.79;67.43;100296.27;1652425;84;21090;-61
2021/08/18 10:42:13;;;;;;;11.30;9.03;;;;;;;21.77;67.37;100296.46;1639795;84;21106;-60
2021/08/18 10:44:49;;;;;;;12.78;8.78;;;;;;;21.78;67.72;100299.95;1669058;83;21093;-60
2021/08/18 10:47:34;;;;;;;13.13;10.20;;;;;;;21.76;67.54;100287.28;1674754;83;21201;-61
2021/08/18 10:50:24;;;;;;;13.83;10.10;;;;;;;21.68;67.49;100290.41;1676517;82;21107;-61
2021/08/18 10:52:54;;;;;;;14.30;10.78;;;;;;;21.63;67.60;100286.17;1706887;81;21020;-61
2021/08/18 10:55:29;;;;;;;13.10;10.75;;;;;;;21.70;67.64;100283.04;1701830;81;21020;-61
2021/08/18 10:58:02;;;;;;;11.08;9.30;;;;;;;21.78;67.51;100286.05;1704366;81;21199;-61
2021/08/18 11:00:39;;;;;;;14.45;10.18;;;;;;;21.86;67.56;100287.73;1697903;81;22767;-60
2021/08/18 11:03:19;;;;;;;11.20;8.73;;;;;;;21.88;66.76;100284.34;1702214;81;21078;-60
2021/08/18 11:05:50;;;;;;;10.85;8.43;;;;;;;21.89;66.45;100279.31;1704909;81;21149;-61
2021/08/18 11:08:40;;;;;;;10.93;7.37;;;;;;;21.96;66.76;100272.64;1704880;81;21083;-61
2021/08/18 11:11:11;;;;;;;9.93;7.42;;;;;;;22.05;66.95;100262.05;1696517;81;21146;-61
2021/08/18 11:13:49;;;;;;;10.53;8.08;;;;;;;22.14;66.59;100262.69;1702629;82;21608;-60
2021/08/18 11:16:28;;;;;;;9.55;7.67;;;;;;;22.17;66.71;100258.27;1709186;81;21324;-62
2021/08/18 11:19:10;;;;;;;15.70;7.28;;;;;;;22.22;66.11;100250.44;1709332;81;22699;-60
2021/08/18 11:21:41;;;;;;;9.30;7.15;;;;;;;22.26;65.56;100239.64;1702415;82;21134;-60
2021/08/18 11:24:13;;;;;;;8.65;6.95;;;;;;;22.38;65.36;100246.61;1705515;81;21082;-60
2021/08/18 11:26:42;;;;;;;8.95;6.70;;;;;;;22.44;65.51;100233.70;1698439;81;21066;-61
2021/08/18 11:29:11;;;;;;;11.00;7.10;;;;;;;22.42;65.11;100233.09;1667940;82;21095;-61
2021/08/18 11:31:49;;;;;;;8.78;6.65;;;;;;;22.41;64.55;100224.76;1686624;81;21158;-61
2021/08/18 11:34:29;;;;;;;10.18;7.35;;;;;;;22.40;64.37;100231.14;1716550;81;21561;-61
2021/08/18 11:37:06;;;;;;;11.10;6.92;;;;;;;22.43;64.46;100232.89;1678901;82;21087;-61
2021/08/18 11:39:37;;;;;;;9.30;6.83;;;;;;;22.57;63.55;100227.54;1696916;82;21187;-62
2021/08/18 11:42:17;;;;;;;9.05;7.33;;;;;;;22.67;62.83;100225.27;1702350;81;21043;-62
2021/08/18 11:44:45;;;;;;;9.45;7.12;;;;;;;22.71;62.46;100219.82;1708339;81;21581;-59
2021/08/18 11:47:17;;;;;;;9.13;6.97;;;;;;;22.74;62.50;100210.52;1711363;81;21929;-59
2021/08/18 11:49:48;;;;;;;10.70;6.80;;;;;;;22.79;62.06;100209.38;1716193;81;21072;-60
2021/08/18 11:52:20;;;;;;;8.33;5.28;;;;;;;22.87;61.88;100199.78;1688767;81;21033;-59
2021/08/18 11:55:01;;;;;;;7.12;6.10;;;;;;;22.95;61.96;100200.09;1702613;81;21117;-60